Marathon Airport
CYSP : now visible

Airfield :











YOU CAN JOIN US ON...

 
LOGIN :

Register | Disclaimer

   EN    FR    IT 

 









Legend :    VFR   Marginal VFR   IFR   Intensive IFR   Very Intensive IFR
Visi :
Ceiling :
>= 8 km
>= 3000ft
5 to 8 km
1000 to 3000 ft
1500m to 5 km
500 to 1000 ft
800 to 1500m
200 to 500 ft
< 800m
< 200 ft
Symbols :   Thunderstorms  Fog  Heavy snow  Heavy precipitations  Wind > 20 kt






- Airport Elevation : 1035 ft
- IATA code : YSP


CYSP - Marathon

CURRENT METAR :
  • 081900Z VRB05KT 1/2SM FG VV001 01/01 A2954 RMK FG8 SLP020

EXPIRED METARs :
  • 081833Z 25003KT 1/2SM FG VV001 01/01 A2955 RMK FG8 SLP021
  • 081826Z VRB02KT 3/4SM BR VV001 01/01 A2955 RMK FG8 SLP022
  • 081800Z VRB03KT 1SM BR VV002 02/02 A2955 RMK FG8 SLP023
  • 081748Z VRB04KT 1SM BR VV002 02/02 A2956 RMK FG8 SLP026
  • 081717Z 24005KT 190V300 1 1/2SM BR VV003 02/02 A2957 RMK FG8 VIS VRB 1-2 VIS S 1 SLP028
  • 081700Z 26006KT 4SM BR SCT003 OVC005 02/02 A2957 RMK FG2SF2SF4 SLP029
  • 081600Z 26004KT 220V350 5SM BR FEW003 BKN006 OVC009 02/02 A2959 RMK SF2SF4SC2 SLP037

TAF AMD TAF CYSP
Valid from the 08 at 18:00 until the 08 at 21:00 UTC


081814Z 0818/0821 22008KT 2SM BR OVC002
TEMPO 0818/0821 6SM -RA BR OVC010 RMK NXT FCST WILL BE ISSUED AT 091345Z



MET'MAP, your aeronautical weather chart ! - Copyright ORBIFLY December 2007 - Disclaimer

ORBIFLY MET'MAP TEAM :

Programming & Development : Alexandra Zaïnal
Concept & original design : Baudouin d'Aumeries
Assistance for programming : Marc-Olivier Méhu
Technical & hardware support : Manuel Goepfert

Contact : metmap@orbifly.com




SOURCES & CREDITS :

   NOAA       Earth
Advisory